Time;durP1;ratioP1;P1;durP2;ratioP2;P2;SDS_P1;SDS_P2;PMS_P1;PMS_P2;Temp;Humidity;BMP_temperature;BMP_pressure;BME280_temperature;BME280_humidity;BME280_pressure;Samples;Min_cycle;Max_cycle;Signal;HPM_P1;HPM_P2
2023/04/24 00:00:09;;;;;;;17.55;12.88;;;;;;;10.77;100.00;99827.59;5015681;28;20038;-72
2023/04/24 00:02:37;;;;;;;18.42;12.85;;;;;;;10.80;100.00;99819.34;5028984;28;20507;-72
2023/04/24 00:05:07;;;;;;;20.63;13.90;;;;;;;10.71;100.00;99830.75;5023615;28;20068;-72
2023/04/24 00:07:33;;;;;;;20.88;14.13;;;;;;;10.84;100.00;99826.13;5014081;28;20037;-71
2023/04/24 00:09:59;;;;;;;25.02;16.25;;;;;;;10.59;100.00;99827.25;5026574;28;20040;-72
2023/04/24 00:12:25;;;;;;;23.08;16.63;;;;;;;10.66;100.00;99840.09;5019250;28;20076;-71
2023/04/24 00:14:50;;;;;;;23.60;16.10;;;;;;;10.60;100.00;99836.09;5001707;28;20033;-72
2023/04/24 00:17:19;;;;;;;27.38;17.45;;;;;;;10.68;100.00;99836.31;5022907;28;20499;-72
2023/04/24 00:19:46;;;;;;;25.58;17.52;;;;;;;10.64;100.00;99840.19;5032204;28;20566;-71
2023/04/24 00:22:13;;;;;;;26.20;17.33;;;;;;;10.74;100.00;99834.97;5032508;28;20041;-71
2023/04/24 00:24:39;;;;;;;29.40;18.95;;;;;;;10.58;100.00;99835.34;5032182;28;20029;-72
2023/04/24 00:27:04;;;;;;;28.17;18.70;;;;;;;10.65;100.00;99839.25;5002300;28;20033;-72
2023/04/24 00:29:30;;;;;;;28.23;18.27;;;;;;;10.83;100.00;99844.91;5012458;28;20038;-71
2023/04/24 00:31:55;;;;;;;28.73;18.10;;;;;;;10.69;100.00;99839.81;5025534;28;20040;-72
2023/04/24 00:34:21;;;;;;;26.90;17.42;;;;;;;10.69;100.00;99845.16;5018423;28;20971;-71
2023/04/24 00:36:48;;;;;;;29.23;18.13;;;;;;;10.73;100.00;99842.13;5022451;28;20565;-71
2023/04/24 00:39:14;;;;;;;26.48;17.33;;;;;;;10.70;100.00;99841.53;5018040;28;20037;-71
2023/04/24 00:41:40;;;;;;;24.55;17.00;;;;;;;10.55;100.00;99841.78;5030801;28;20037;-71
2023/04/24 00:44:06;;;;;;;22.98;15.68;;;;;;;10.50;100.00;99838.66;5027628;28;20045;-72
2023/04/24 00:46:31;;;;;;;23.50;16.23;;;;;;;10.63;100.00;99852.69;4996034;28;20050;-72
2023/04/24 00:48:59;;;;;;;25.20;16.13;;;;;;;10.55;100.00;99847.13;5020803;28;20045;-71
2023/04/24 00:51:24;;;;;;;18.10;13.77;;;;;;;10.48;100.00;99842.38;5009122;28;20034;-71
2023/04/24 00:53:51;;;;;;;23.42;16.35;;;;;;;10.67;100.00;99839.97;5023134;28;20046;-71
2023/04/24 00:56:17;;;;;;;23.92;16.17;;;;;;;10.70;100.00;99845.06;5019204;28;20033;-71
2023/04/24 00:58:43;;;;;;;22.65;15.40;;;;;;;10.72;100.00;99839.59;5025125;28;20077;-71
2023/04/24 01:01:11;;;;;;;23.92;15.85;;;;;;;10.71;100.00;99832.56;5029620;28;21015;-71
2023/04/24 01:03:37;;;;;;;21.65;14.52;;;;;;;10.65;100.00;99831.25;5012372;28;20034;-71
2023/04/24 01:06:05;;;;;;;20.42;14.57;;;;;;;10.68;100.00;99832.81;5024248;28;20033;-71
2023/04/24 01:08:30;;;;;;;20.10;13.18;;;;;;;10.78;100.00;99837.28;5014317;28;20038;-72
2023/04/24 01:10:57;;;;;;;20.25;13.75;;;;;;;10.67;100.00;99839.97;5012074;28;20487;-71
2023/04/24 01:13:23;;;;;;;20.52;12.95;;;;;;;10.76;100.00;99831.22;5030599;28;20049;-71
2023/04/24 01:15:49;;;;;;;21.58;14.75;;;;;;;10.71;100.00;99848.56;5025808;28;20036;-71
2023/04/24 01:18:15;;;;;;;17.98;13.27;;;;;;;10.69;100.00;99839.81;5025202;28;20045;-71
2023/04/24 01:20:44;;;;;;;20.27;14.40;;;;;;;10.74;100.00;99842.97;5014411;28;20034;-71
2023/04/24 01:23:10;;;;;;;18.25;13.10;;;;;;;10.57;100.00;99839.00;5019857;28;20042;-71
2023/04/24 01:25:36;;;;;;;21.02;14.20;;;;;;;10.60;100.00;99839.59;5022642;28;20033;-71
2023/04/24 01:28:03;;;;;;;20.27;14.27;;;;;;;10.69;100.00;99848.66;5006641;28;20164;-71
2023/04/24 01:30:32;;;;;;;22.90;15.15;;;;;;;10.48;100.00;99845.91;5011146;28;20036;-71
2023/04/24 01:32:58;;;;;;;23.75;14.68;;;;;;;10.57;100.00;99839.84;5017926;28;20037;-71
2023/04/24 01:35:24;;;;;;;22.40;14.48;;;;;;;10.66;100.00;99842.75;5021624;28;20033;-71
2023/04/24 01:37:50;;;;;;;23.70;15.77;;;;;;;10.50;100.00;99833.31;5017035;28;20042;-71
2023/04/24 01:40:16;;;;;;;22.33;15.07;;;;;;;10.48;100.00;99837.91;5013241;28;20037;-71
2023/04/24 01:42:42;;;;;;;22.27;15.30;;;;;;;10.69;100.00;99838.00;5004473;28;20753;-71
2023/04/24 01:45:10;;;;;;;25.35;15.98;;;;;;;10.61;100.00;99830.63;5008578;28;20042;-71
2023/04/24 01:47:36;;;;;;;25.50;15.93;;;;;;;10.55;100.00;99832.94;5027692;28;20049;-71
2023/04/24 01:50:03;;;;;;;29.02;16.02;;;;;;;10.63;100.00;99843.84;5003626;28;20033;-71
2023/04/24 01:52:30;;;;;;;28.70;16.23;;;;;;;10.54;100.00;99834.78;5016258;28;21126;-71
2023/04/24 01:54:59;;;;;;;23.73;16.35;;;;;;;10.48;100.00;99837.06;5023378;28;20172;-70
2023/04/24 01:57:25;;;;;;;28.70;16.88;;;;;;;10.51;100.00;99839.50;5008004;28;20499;-71
2023/04/24 01:59:51;;;;;;;26.70;16.50;;;;;;;10.44;100.00;99836.47;5013211;28;20041;-71
2023/04/24 02:02:16;;;;;;;25.77;17.05;;;;;;;10.48;100.00;99837.91;5009333;28;21078;-71
2023/04/24 02:04:42;;;;;;;24.05;16.40;;;;;;;10.47;100.00;99841.53;5011000;28;20045;-71
2023/04/24 02:07:08;;;;;;;26.23;17.25;;;;;;;10.41;100.00;99834.03;5012853;28;20038;-71
2023/04/24 02:09:33;;;;;;;31.67;18.23;;;;;;;10.40;100.00;99842.16;5026636;28;20060;-71
2023/04/24 02:12:00;;;;;;;32.65;18.60;;;;;;;10.27;100.00;99848.44;5014543;28;20030;-71
2023/04/24 02:14:25;;;;;;;29.52;19.25;;;;;;;10.43;100.00;99837.41;5011558;28;20041;-71
2023/04/24 02:16:51;;;;;;;35.75;20.38;;;;;;;10.53;100.00;99843.72;5026950;28;20033;-71
2023/04/24 02:19:17;;;;;;;36.70;21.73;;;;;;;10.42;100.00;99846.38;4996058;28;20041;-71
2023/04/24 02:21:42;;;;;;;37.13;21.40;;;;;;;10.43;100.00;99844.56;5017605;28;20037;-71
2023/04/24 02:24:08;;;;;;;31.98;21.58;;;;;;;10.43;100.00;99847.22;5019358;28;20056;-71
2023/04/24 02:26:34;;;;;;;38.35;22.98;;;;;;;10.42;100.00;99843.72;5008447;28;20076;-71
2023/04/24 02:28:59;;;;;;;38.85;23.50;;;;;;;10.50;100.00;99845.78;5011083;28;20045;-71
2023/04/24 02:31:25;;;;;;;34.50;21.95;;;;;;;10.37;100.00;99846.75;5030446;28;20772;-71
2023/04/24 02:33:51;;;;;;;37.90;21.42;;;;;;;10.35;100.00;99846.03;5018529;28;20034;-71
2023/04/24 02:36:16;;;;;;;38.55;21.85;;;;;;;10.53;100.00;99848.19;5018586;28;20038;-71
2023/04/24 02:38:42;;;;;;;33.95;21.63;;;;;;;10.53;100.00;99851.72;5019775;28;20752;-71
2023/04/24 02:41:07;;;;;;;35.38;20.77;;;;;;;10.40;100.00;99842.16;5026204;28;20033;-71
2023/04/24 02:43:33;;;;;;;35.58;20.33;;;;;;;10.08;100.00;99854.31;5013970;28;20088;-71
2023/04/24 02:45:59;;;;;;;33.60;21.58;;;;;;;10.35;100.00;99855.84;5029133;28;20055;-71
2023/04/24 02:48:24;;;;;;;27.55;18.23;;;;;;;10.27;100.00;99853.75;5019851;28;20857;-71
2023/04/24 02:50:51;;;;;;;26.33;18.15;;;;;;;10.41;100.00;99847.34;5028474;28;20040;-71
2023/04/24 02:53:16;;;;;;;27.27;17.98;;;;;;;10.22;100.00;99850.56;5004961;28;20415;-71
2023/04/24 02:55:42;;;;;;;31.33;18.23;;;;;;;10.32;100.00;99851.59;4996939;28;20042;-71
2023/04/24 02:58:08;;;;;;;26.23;17.58;;;;;;;10.27;100.00;99847.59;5025838;28;20041;-71
2023/04/24 03:00:33;;;;;;;29.00;17.60;;;;;;;10.38;100.00;99852.91;5012697;28;20897;-71
2023/04/24 03:02:59;;;;;;;29.17;18.95;;;;;;;10.43;100.00;99844.56;5030682;28;20052;-71
2023/04/24 03:05:25;;;;;;;29.45;19.35;;;;;;;10.34;100.00;99851.47;5013796;28;20065;-71
2023/04/24 03:07:52;;;;;;;33.53;19.55;;;;;;;10.33;100.00;99855.94;5014008;28;20041;-71
2023/04/24 03:10:18;;;;;;;32.97;20.95;;;;;;;10.40;100.00;99856.34;5022472;28;20604;-71
2023/04/24 03:12:43;;;;;;;36.08;22.05;;;;;;;10.11;100.00;99861.22;5023872;28;20037;-71
2023/04/24 03:15:09;;;;;;;39.58;24.13;;;;;;;10.26;100.00;99864.56;5024820;28;20033;-71
2023/04/24 03:17:36;;;;;;;40.83;25.02;;;;;;;10.40;100.00;99858.16;5018755;28;20038;-71
2023/04/24 03:20:05;;;;;;;49.28;25.70;;;;;;;10.36;100.00;99863.72;5025598;28;20050;-71
2023/04/24 03:22:32;;;;;;;42.97;25.48;;;;;;;10.02;100.00;99869.91;5003834;28;20033;-71
2023/04/24 03:24:58;;;;;;;51.08;29.80;;;;;;;10.17;100.00;99866.06;4993875;28;20096;-71
2023/04/24 03:27:24;;;;;;;44.40;26.92;;;;;;;10.06;100.00;99864.25;4991742;28;20072;-71
2023/04/24 03:29:55;;;;;;;56.13;30.90;;;;;;;10.15;100.00;99873.34;5009059;28;20029;-71
2023/04/24 03:32:25;;;;;;;47.70;30.05;;;;;;;10.13;100.00;99876.09;4994165;28;20048;-71
2023/04/24 03:34:51;;;;;;;50.80;30.23;;;;;;;10.02;100.00;99873.44;5010127;28;20930;-71
2023/04/24 03:37:17;;;;;;;52.80;30.27;;;;;;;10.06;100.00;99877.56;5010176;28;20040;-71
2023/04/24 03:39:48;;;;;;;51.55;31.80;;;;;;;10.04;100.00;99879.50;4986001;28;20032;-71
2023/04/24 03:42:16;;;;;;;53.42;31.90;;;;;;;10.13;100.00;99876.09;5004580;28;20033;-71
2023/04/24 03:44:50;;;;;;;60.90;34.03;;;;;;;10.04;100.00;99874.19;5008101;28;20191;-71
2023/04/24 03:47:16;;;;;;;59.08;34.35;;;;;;;10.09;100.00;99872.00;4993909;28;20046;-71
2023/04/24 03:49:42;;;;;;;55.47;31.77;;;;;;;10.11;100.00;99879.88;4995475;28;20025;-72
2023/04/24 03:52:09;;;;;;;58.63;34.83;;;;;;;9.98;100.00;99874.63;5006272;28;20049;-71
2023/04/24 03:54:35;;;;;;;61.00;35.38;;;;;;;10.08;100.00;99894.25;5011393;28;20034;-71
2023/04/24 03:57:01;;;;;;;58.72;33.88;;;;;;;9.92;100.00;99879.56;5001878;28;20116;-71
2023/04/24 03:59:28;;;;;;;58.90;35.45;;;;;;;9.92;100.00;99880.41;5024855;28;20079;-71
2023/04/24 04:02:15;;;;;;;61.05;35.78;;;;;;;9.95;100.00;99882.00;5017530;28;20037;-71
2023/04/24 04:04:40;;;;;;;61.55;36.90;;;;;;;10.06;100.00;99880.22;5013647;28;20041;-71
2023/04/24 04:07:06;;;;;;;67.72;35.75;;;;;;;9.98;100.00;99877.28;5015667;28;20417;-71
2023/04/24 04:09:32;;;;;;;54.92;33.90;;;;;;;9.98;100.00;99887.94;5003734;28;20040;-71
2023/04/24 04:11:58;;;;;;;62.45;37.00;;;;;;;9.96;100.00;99889.03;5022080;28;20034;-72
2023/04/24 04:14:24;;;;;;;68.88;37.30;;;;;;;9.89;100.00;99894.00;4996567;28;20034;-71
2023/04/24 04:16:49;;;;;;;63.88;34.65;;;;;;;9.88;100.00;99894.09;5006724;28;20780;-72
2023/04/24 04:19:15;;;;;;;63.60;35.95;;;;;;;9.91;100.00;99907.19;5012496;28;20045;-69
2023/04/24 04:21:41;;;;;;;63.00;36.00;;;;;;;9.93;100.00;99906.09;5009910;28;20037;-72
2023/04/24 04:24:13;;;;;;;65.78;36.47;;;;;;;9.93;100.00;99905.22;5008072;28;20042;-72
2023/04/24 04:26:47;;;;;;;63.42;34.45;;;;;;;9.86;100.00;99900.38;5006468;28;20141;-72
2023/04/24 04:29:19;;;;;;;62.20;34.20;;;;;;;9.93;100.00;99910.56;5005186;28;20049;-72
2023/04/24 04:31:46;;;;;;;64.43;35.65;;;;;;;9.85;100.00;99904.00;5007250;28;20040;-71
2023/04/24 04:34:13;;;;;;;60.55;33.83;;;;;;;9.83;100.00;99908.59;5012759;28;20042;-72
2023/04/24 04:36:41;;;;;;;57.25;34.70;;;;;;;9.76;100.00;99910.03;5008764;28;20697;-72
2023/04/24 04:39:20;;;;;;;58.90;35.08;;;;;;;9.87;100.00;99911.88;5010243;28;20052;-71
2023/04/24 04:42:06;;;;;;;53.22;31.92;;;;;;;9.77;100.00;99913.53;5030746;28;20037;-71
2023/04/24 04:44:39;;;;;;;55.13;30.42;;;;;;;9.80;100.00;99908.84;5031384;28;20040;-71
2023/04/24 04:47:08;;;;;;;59.17;32.05;;;;;;;9.85;100.00;99921.81;5013298;28;20041;-70
2023/04/24 04:49:35;;;;;;;59.63;33.10;;;;;;;9.82;100.00;99922.03;5026570;28;20049;-70
2023/04/24 04:52:02;;;;;;;55.50;33.25;;;;;;;10.01;100.00;99914.34;5023382;28;20030;-71
2023/04/24 04:54:28;;;;;;;63.97;34.92;;;;;;;9.97;100.00;99912.88;5010626;28;20042;-71
2023/04/24 04:56:57;;;;;;;63.83;35.10;;;;;;;10.01;100.00;99902.84;5008327;28;20069;-71
2023/04/24 04:59:22;;;;;;;54.50;30.90;;;;;;;9.99;100.00;99902.09;5010695;28;20026;-71
2023/04/24 05:01:52;;;;;;;52.10;29.23;;;;;;;10.02;100.00;99907.22;5005770;28;20124;-70
2023/04/24 05:04:18;;;;;;;55.95;30.35;;;;;;;10.11;100.00;99903.84;5009215;28;20245;-70
2023/04/24 05:06:43;;;;;;;42.05;26.40;;;;;;;9.90;100.00;99909.00;5019722;28;20037;-70
2023/04/24 05:09:09;;;;;;;52.25;29.13;;;;;;;9.85;100.00;99905.84;5013583;28;20103;-71
2023/04/24 05:11:49;;;;;;;49.53;28.90;;;;;;;9.97;100.00;99912.88;4997345;28;20034;-70
2023/04/24 05:14:17;;;;;;;46.78;27.88;;;;;;;9.91;100.00;99905.34;5015429;28;20042;-71
2023/04/24 05:16:43;;;;;;;48.53;27.67;;;;;;;9.91;100.00;99908.03;5013672;28;20030;-71
2023/04/24 05:19:11;;;;;;;52.45;27.60;;;;;;;10.00;100.00;99915.31;5006442;28;20581;-71
2023/04/24 05:21:42;;;;;;;46.67;25.95;;;;;;;10.03;100.00;99909.75;5031229;28;20033;-71
2023/04/24 05:24:09;;;;;;;40.38;25.05;;;;;;;9.92;100.00;99916.84;5013907;28;20049;-70
2023/04/24 05:27:04;;;;;;;43.55;26.77;;;;;;;9.98;100.00;99916.38;5014425;28;20161;-71
2023/04/24 05:29:35;;;;;;;49.22;26.98;;;;;;;9.85;100.00;99924.47;5014400;28;20034;-71
2023/04/24 05:32:02;;;;;;;46.88;26.08;;;;;;;9.83;100.00;99926.38;5013096;28;20034;-70
2023/04/24 05:34:29;;;;;;;41.03;23.98;;;;;;;9.85;100.00;99930.63;5025743;28;20423;-71
2023/04/24 05:36:56;;;;;;;45.05;24.42;;;;;;;9.91;100.00;99921.34;5022811;28;20029;-71
2023/04/24 05:39:22;;;;;;;43.47;25.10;;;;;;;9.79;100.00;99925.78;5021331;28;20041;-71
2023/04/24 05:41:47;;;;;;;42.65;24.17;;;;;;;9.57;100.00;99923.84;5020971;28;20034;-71
2023/04/24 05:44:13;;;;;;;43.25;24.85;;;;;;;9.85;100.00;99933.31;5023971;28;20045;-71
2023/04/24 05:46:38;;;;;;;44.47;24.88;;;;;;;9.82;100.00;99938.84;5012638;28;20073;-70
2023/04/24 05:49:04;;;;;;;36.95;22.67;;;;;;;9.82;100.00;99938.00;5014936;28;20061;-70
2023/04/24 05:51:31;;;;;;;32.80;21.70;;;;;;;9.77;100.00;99941.00;5010428;28;20037;-71
2023/04/24 05:53:58;;;;;;;45.20;23.48;;;;;;;9.84;100.00;99944.06;5016323;28;20368;-71
2023/04/24 05:56:25;;;;;;;40.05;24.85;;;;;;;9.73;100.00;99938.69;4997241;28;20034;-70
2023/04/24 05:58:50;;;;;;;43.60;23.17;;;;;;;9.78;100.00;99942.69;4997348;28;20931;-72
2023/04/24 06:01:16;;;;;;;43.78;23.35;;;;;;;9.64;100.00;99952.66;5009314;28;20045;-70
2023/04/24 06:03:45;;;;;;;39.05;22.35;;;;;;;9.63;100.00;99958.97;5002874;28;20034;-70
2023/04/24 06:06:11;;;;;;;28.85;17.08;;;;;;;9.58;100.00;99959.28;5027528;28;20045;-70
2023/04/24 06:08:36;;;;;;;30.30;18.90;;;;;;;9.71;100.00;99961.91;5004636;28;20034;-71
2023/04/24 06:11:02;;;;;;;31.80;19.45;;;;;;;9.62;100.00;99966.09;5012938;28;20100;-72
2023/04/24 06:13:28;;;;;;;28.38;17.70;;;;;;;9.88;100.00;99974.81;5013032;28;20038;-72
2023/04/24 06:16:19;;;;;;;27.33;14.35;;;;;;;9.86;100.00;99972.28;5018307;28;20042;-72
2023/04/24 06:18:51;;;;;;;;;;;;;;;9.99;100.00;99974.88;5002231;28;20037;-72
2023/04/24 06:21:18;;;;;;;23.33;15.75;;;;;;;10.15;100.00;99982.56;5001026;28;19917;-72
2023/04/24 06:23:46;;;;;;;26.90;16.45;;;;;;;10.28;100.00;99977.19;4999327;28;20149;-72
2023/04/24 06:26:11;;;;;;;24.85;16.20;;;;;;;10.42;100.00;99981.47;5022985;28;20029;-72
2023/04/24 06:28:38;;;;;;;24.70;15.57;;;;;;;10.41;100.00;99980.63;5007752;28;20034;-72
2023/04/24 06:31:03;;;;;;;35.35;18.50;;;;;;;10.48;100.00;99979.16;5024528;28;20034;-72
2023/04/24 06:33:30;;;;;;;29.25;17.83;;;;;;;10.56;100.00;99982.09;5002588;28;20042;-72
2023/04/24 06:35:56;;;;;;;28.52;16.75;;;;;;;10.45;100.00;99991.91;5020594;28;20025;-72
2023/04/24 06:38:21;;;;;;;27.60;17.10;;;;;;;10.67;100.00;99983.94;5002696;28;20042;-72
2023/04/24 06:40:47;;;;;;;29.70;16.80;;;;;;;10.51;100.00;99986.94;5019604;28;20034;-72
2023/04/24 06:43:12;;;;;;;26.73;17.30;;;;;;;10.36;100.00;99994.28;5025687;28;20064;-72
2023/04/24 06:45:39;;;;;;;28.70;18.98;;;;;;;10.30;100.00;99996.59;5012184;28;20054;-71
2023/04/24 06:48:05;;;;;;;30.95;17.58;;;;;;;10.43;100.00;100000.00;4993849;28;20030;-72
2023/04/24 06:50:30;;;;;;;27.85;17.30;;;;;;;10.34;100.00;99998.03;4977320;28;20066;-72
2023/04/24 06:52:56;;;;;;;28.95;16.75;;;;;;;10.36;100.00;100010.28;4993053;28;20882;-72
2023/04/24 06:55:22;;;;;;;23.10;14.95;;;;;;;10.41;100.00;100007.28;4992475;28;20810;-72
2023/04/24 06:57:47;;;;;;;22.83;15.07;;;;;;;10.54;100.00;100007.16;4993864;28;20046;-72
2023/04/24 07:00:14;;;;;;;20.42;13.45;;;;;;;10.36;100.00;100007.63;4990186;28;20041;-72
2023/04/24 07:02:40;;;;;;;19.23;11.95;;;;;;;10.29;100.00;100010.84;4992465;28;20139;-72
2023/04/24 07:05:06;;;;;;;14.15;10.02;;;;;;;10.31;100.00;100007.13;4994450;28;20162;-72
2023/04/24 07:07:32;;;;;;;13.80;8.90;;;;;;;10.12;100.00;100014.75;4993558;28;20093;-72
2023/04/24 07:09:58;;;;;;;13.05;8.70;;;;;;;10.25;100.00;100014.72;4993592;28;20034;-72
2023/04/24 07:12:23;;;;;;;12.48;8.70;;;;;;;10.36;100.00;100017.44;4998968;28;20034;-70
2023/04/24 07:14:50;;;;;;;16.00;9.82;;;;;;;10.41;100.00;100015.25;4966237;28;20038;-72
2023/04/24 07:17:16;;;;;;;14.57;10.45;;;;;;;10.50;100.00;100025.22;4994325;28;20042;-72
2023/04/24 07:19:42;;;;;;;15.68;9.80;;;;;;;10.48;100.00;100023.63;4974654;28;20055;-70
2023/04/24 07:22:08;;;;;;;14.90;10.02;;;;;;;10.54;100.00;100036.47;4996238;28;20049;-72
2023/04/24 07:24:34;;;;;;;17.00;10.50;;;;;;;10.70;100.00;100030.84;4996062;28;20068;-72
2023/04/24 07:27:00;;;;;;;15.85;9.73;;;;;;;10.78;100.00;100031.09;4995779;28;20030;-70
2023/04/24 07:29:26;;;;;;;16.10;10.57;;;;;;;10.98;100.00;100033.06;4994207;28;20038;-70
2023/04/24 07:31:53;;;;;;;16.73;11.43;;;;;;;11.22;100.00;100043.63;4993389;28;20540;-72
2023/04/24 07:34:19;;;;;;;12.13;8.57;;;;;;;10.94;100.00;100038.75;4996452;28;20144;-70
2023/04/24 07:36:45;;;;;;;14.45;9.60;;;;;;;10.79;100.00;100056.78;5002244;28;20177;-70
2023/04/24 07:39:11;;;;;;;11.70;8.35;;;;;;;10.72;100.00;100060.91;5004426;28;20052;-72
2023/04/24 07:41:37;;;;;;;13.80;8.60;;;;;;;10.95;100.00;100067.16;4984986;28;20042;-72
2023/04/24 07:44:02;;;;;;;13.15;8.70;;;;;;;10.72;100.00;100068.91;4998195;28;20777;-70
2023/04/24 07:46:30;;;;;;;11.00;7.85;;;;;;;10.60;100.00;100073.38;5003775;28;20109;-71
2023/04/24 07:48:56;;;;;;;11.90;8.00;;;;;;;10.43;100.00;100084.44;5018437;28;20030;-72
2023/04/24 07:51:21;;;;;;;12.38;7.80;;;;;;;10.47;100.00;100091.25;5029576;28;20104;-69
2023/04/24 07:53:47;;;;;;;11.20;8.15;;;;;;;10.36;100.00;100095.56;5011291;28;20125;-69
2023/04/24 07:56:13;;;;;;;13.38;7.55;;;;;;;10.36;100.00;100094.72;5010750;28;20114;-71
2023/04/24 07:58:38;;;;;;;13.20;7.20;;;;;;;10.22;100.00;100101.03;5003197;28;20045;-70
2023/04/24 08:01:04;;;;;;;12.13;5.43;;;;;;;10.10;100.00;100112.59;5021342;28;20045;-72
2023/04/24 08:03:29;;;;;;;7.93;5.20;;;;;;;10.13;100.00;100107.88;5021979;28;20029;-72
2023/04/24 08:05:55;;;;;;;5.88;3.65;;;;;;;10.19;100.00;100113.72;5006512;28;20056;-72
2023/04/24 08:08:22;;;;;;;6.85;3.90;;;;;;;10.00;100.00;100125.72;5020102;28;21123;-69
2023/04/24 08:10:48;;;;;;;6.82;3.78;;;;;;;9.72;100.00;100134.00;4998423;28;20057;-72
2023/04/24 08:13:14;;;;;;;8.68;4.70;;;;;;;9.81;100.00;100142.19;5029173;28;20982;-71
2023/04/24 08:15:39;;;;;;;9.93;5.45;;;;;;;9.76;100.00;100151.44;5026172;28;20033;-72
2023/04/24 08:18:05;;;;;;;8.02;4.85;;;;;;;9.78;100.00;100160.16;5026865;28;20414;-71
2023/04/24 08:20:30;;;;;;;9.25;5.95;;;;;;;9.63;100.00;100174.56;5019918;28;20049;-72
2023/04/24 08:22:56;;;;;;;22.77;8.55;;;;;;;9.43;100.00;100173.28;5025227;28;20612;-71
2023/04/24 08:25:23;;;;;;;16.08;9.07;;;;;;;9.39;100.00;100190.41;4998415;28;20040;-72
2023/04/24 08:27:48;;;;;;;16.73;11.07;;;;;;;9.31;100.00;100197.13;5011393;28;21563;-72
2023/04/24 08:30:14;;;;;;;17.17;10.77;;;;;;;9.27;100.00;100205.44;5030489;28;21849;-71
2023/04/24 08:32:40;;;;;;;17.17;10.15;;;;;;;9.08;100.00;100225.28;5009033;28;20403;-72
2023/04/24 08:35:09;;;;;;;21.63;11.77;;;;;;;9.13;100.00;100229.44;5029671;28;20049;-72
2023/04/24 08:37:34;;;;;;;22.55;10.65;;;;;;;9.10;100.00;100227.00;5024115;28;20868;-74
2023/04/24 08:40:00;;;;;;;13.90;9.77;;;;;;;8.97;100.00;100234.94;5029050;28;20426;-71
2023/04/24 08:42:28;;;;;;;18.92;9.52;;;;;;;8.88;100.00;100247.03;5016171;28;20045;-71
2023/04/24 08:44:54;;;;;;;18.85;11.93;;;;;;;9.02;100.00;100246.97;5026880;28;20032;-71
2023/04/24 08:47:21;;;;;;;20.15;11.48;;;;;;;9.24;100.00;100256.19;5022687;28;20057;-72
2023/04/24 08:49:49;;;;;;;25.67;11.55;;;;;;;9.19;100.00;100260.97;5005644;28;20033;-71
2023/04/24 08:52:15;;;;;;;25.05;12.45;;;;;;;9.28;100.00;100265.66;5033217;28;20034;-71
2023/04/24 08:54:45;;;;;;;23.77;11.45;;;;;;;9.26;100.00;100271.09;5026419;28;20068;-71
2023/04/24 08:57:14;;;;;;;21.98;12.48;;;;;;;9.28;100.00;100273.63;5020475;28;20101;-72
2023/04/24 08:59:39;;;;;;;21.63;12.45;;;;;;;9.21;100.00;100283.00;5016386;28;20294;-71
2023/04/24 09:02:09;;;;;;;22.10;12.45;;;;;;;9.16;100.00;100282.44;5020978;28;20061;-71
2023/04/24 09:04:37;;;;;;;16.50;10.48;;;;;;;9.15;100.00;100289.59;5030931;28;20060;-72
2023/04/24 09:07:03;;;;;;;18.38;11.43;;;;;;;9.24;100.00;100298.78;5014033;28;20663;-71
2023/04/24 09:09:31;;;;;;;20.20;12.57;;;;;;;9.22;100.00;100306.81;5031654;28;20037;-71
2023/04/24 09:11:57;;;;;;;22.20;12.23;;;;;;;9.28;100.00;100302.91;5013736;28;20032;-72
2023/04/24 09:14:23;;;;;;;28.98;12.82;;;;;;;9.41;100.00;100311.78;5017896;28;20842;-72
2023/04/24 09:16:50;;;;;;;23.10;11.63;;;;;;;9.24;100.00;100318.25;5020301;28;20876;-71
2023/04/24 09:19:15;;;;;;;23.45;11.65;;;;;;;9.43;100.00;100320.50;5016800;28;20045;-72
2023/04/24 09:21:46;;;;;;;20.48;10.98;;;;;;;9.45;100.00;100329.25;4997185;28;20069;-72
2023/04/24 09:24:22;;;;;;;17.23;10.90;;;;;;;9.57;100.00;100338.22;5024655;28;20030;-72
2023/04/24 09:26:49;;;;;;;17.60;9.68;;;;;;;9.48;100.00;100338.81;5017868;28;20034;-72
2023/04/24 09:29:18;;;;;;;15.43;8.27;;;;;;;9.44;100.00;100346.19;5007522;28;20044;-72
2023/04/24 09:31:45;;;;;;;13.00;6.30;;;;;;;9.40;100.00;100351.81;5019266;28;20036;-72
2023/04/24 09:34:12;;;;;;;11.27;6.53;;;;;;;9.20;100.00;100350.47;5011487;28;20084;-72
2023/04/24 09:36:40;;;;;;;13.02;6.57;;;;;;;9.26;100.00;100361.53;5030742;28;20589;-71
2023/04/24 09:39:16;;;;;;;13.93;6.28;;;;;;;9.14;100.00;100377.47;5001887;28;20041;-71
2023/04/24 09:41:53;;;;;;;18.73;7.15;;;;;;;9.09;100.00;100372.44;5015517;28;20062;-71
2023/04/24 09:44:23;;;;;;;16.23;6.10;;;;;;;9.23;100.00;100376.84;5020434;28;20041;-71
2023/04/24 09:46:54;;;;;;;15.05;5.78;;;;;;;9.27;100.00;100386.34;4991607;28;20054;-71
2023/04/24 09:49:27;;;;;;;17.83;6.57;;;;;;;9.43;100.00;100384.38;4998916;28;20033;-71
2023/04/24 09:52:11;;;;;;;21.60;6.60;;;;;;;9.47;100.00;100388.53;4995716;28;20058;-71
2023/04/24 09:54:38;;;;;;;14.00;5.95;;;;;;;9.52;100.00;100398.88;4996508;28;20033;-71
2023/04/24 09:57:04;;;;;;;20.33;5.80;;;;;;;9.70;100.00;100391.50;4994150;28;20058;-71
2023/04/24 09:59:30;;;;;;;22.05;5.25;;;;;;;9.73;100.00;100396.59;4988672;28;20141;-71
2023/04/24 10:01:58;;;;;;;16.13;4.88;;;;;;;9.91;100.00;100392.72;4974819;28;20030;-71
2023/04/24 10:04:26;;;;;;;16.65;4.95;;;;;;;9.90;100.00;100393.66;4990233;28;20357;-72
2023/04/24 10:06:54;;;;;;;14.85;5.70;;;;;;;10.41;100.00;100388.41;4998658;28;20029;-72
2023/04/24 10:09:21;;;;;;;19.05;6.00;;;;;;;10.43;100.00;100401.63;4993963;28;20034;-72
2023/04/24 10:11:49;;;;;;;10.20;4.10;;;;;;;10.19;100.00;100402.34;4976349;28;20019;-71
2023/04/24 10:14:21;;;;;;;15.50;4.30;;;;;;;10.55;100.00;100414.94;4994196;28;20042;-71
2023/04/24 10:16:47;;;;;;;18.85;5.03;;;;;;;10.76;100.00;100414.41;4999342;28;20117;-71
2023/04/24 10:19:18;;;;;;;14.60;4.50;;;;;;;10.98;100.00;100413.69;4995603;28;20472;-71
2023/04/24 10:21:47;;;;;;;16.13;5.15;;;;;;;11.24;100.00;100422.47;5002241;28;20030;-71
2023/04/24 10:24:17;;;;;;;17.92;4.82;;;;;;;11.27;100.00;100409.78;4995025;28;20039;-71
2023/04/24 10:26:45;;;;;;;20.83;5.15;;;;;;;11.81;100.00;100408.47;5002727;28;20037;-71
2023/04/24 10:29:18;;;;;;;14.27;4.53;;;;;;;11.87;100.00;100421.38;4994545;28;20692;-71
2023/04/24 10:31:47;;;;;;;13.10;4.18;;;;;;;11.69;100.00;100418.22;5000915;28;20096;-71
2023/04/24 10:34:15;;;;;;;19.35;4.60;;;;;;;11.87;100.00;100419.56;5009080;28;20034;-71
2023/04/24 10:36:51;;;;;;;6.90;3.65;;;;;;;12.02;100.00;100424.72;4999625;28;20105;-71
2023/04/24 10:39:18;;;;;;;10.18;4.13;;;;;;;12.44;100.00;100429.41;4994249;28;20081;-71
2023/04/24 10:41:44;;;;;;;16.58;5.00;;;;;;;12.55;100.00;100430.41;4996139;28;20060;-71
2023/04/24 10:44:15;;;;;;;14.60;4.63;;;;;;;12.65;100.00;100432.25;4983739;28;20038;-71
2023/04/24 10:46:45;;;;;;;18.13;4.00;;;;;;;12.62;100.00;100420.94;5017827;28;20049;-72
2023/04/24 10:49:11;;;;;;;13.27;6.07;;;;;;;12.95;100.00;100439.69;4996732;28;20137;-71
2023/04/24 10:51:53;;;;;;;14.27;4.28;;;;;;;12.58;98.09;100439.03;5016078;28;20040;-72
2023/04/24 10:54:43;;;;;;;11.40;4.03;;;;;;;12.36;100.00;100439.03;5019189;28;20042;-72
2023/04/24 10:57:21;;;;;;;17.90;5.03;;;;;;;12.53;100.00;100443.91;5007733;28;20374;-71
2023/04/24 11:00:12;;;;;;;16.02;4.55;;;;;;;12.10;100.00;100446.38;4993967;28;20042;-72
2023/04/24 11:02:40;;;;;;;11.35;3.80;;;;;;;11.96;100.00;100450.09;5010202;28;20040;-71
2023/04/24 11:05:07;;;;;;;6.85;3.50;;;;;;;11.77;96.06;100468.44;4998313;28;20038;-72
2023/04/24 11:08:11;;;;;;;12.20;3.03;;;;;;;11.49;97.16;100453.56;5031420;28;20025;-72
2023/04/24 11:10:45;;;;;;;13.90;3.13;;;;;;;11.29;96.37;100457.69;5016917;28;20106;-71
2023/04/24 11:13:13;;;;;;;12.88;3.65;;;;;;;11.67;97.42;100460.25;5023927;28;20045;-71